Flight Track Log - Related Links

Times and Time Zones

All times are in EDT time to prevent confusion due to time zone crossing. See the SWA378 flight status page for this flight to view local times or setup timezone preferences in your user account.

Time Position Orientation Groundspeed Altitude Reporting Facility
EDT Latitude Longitude Course Direction KTS MPH feet Rate Location/Type
Mon 01:27:56 PM 33.9042 -118.5100 225° Southwest 210 242 3,100  Level Los Angeles Center
Mon 01:28:58 PM 33.8294 -118.5239 189° South 265 305 5,200 2,516 Climbing Los Angeles Center
Mon 01:30:00 PM 33.7467 -118.5219 179° South 281 323 8,300 2,565 Climbing Los Angeles Center
Mon 01:31:02 PM 33.6819 -118.4700 146° Southeast 311 358 10,500 1,984 Climbing Los Angeles Center
Mon 01:32:00 PM 33.6354 -118.3541 121° Southeast  Level FlightAware Approximate
Mon 01:32:04 PM 33.6508 -118.3642 109° East 339 390 12,400  Level Los Angeles Center
Mon 01:33:07 PM 33.6436 -118.2442 94° East 370 426 15,100 2,640 Climbing Los Angeles Center
Mon 01:34:09 PM 33.6444 -118.0928 90° East 381 438 17,900 2,226 Climbing Los Angeles Center
Mon 01:35:11 PM 33.6450 -117.9572 90° East 403 464 19,700 2,032 Climbing Los Angeles Center
Mon 01:36:13 PM 33.6436 -117.8139 91° East 428 493 22,100 2,226 Climbing Los Angeles Center
Mon 01:37:15 PM 33.6428 -117.6703 90° East 431 496 24,300 2,032 Climbing Los Angeles Center
Mon 01:38:17 PM 33.6428 -117.5236 90° East 440 506 26,300 1,935 Climbing Los Angeles Center
Mon 01:39:19 PM 33.6408 -117.3425 91° East 452 520 28,300 1,597 Climbing Los Angeles Center
Mon 01:40:21 PM 33.6389 -117.1889 91° East 460 529 29,600 1,103 Climbing Los Angeles Center
Mon 01:41:35 PM 33.6375 -117.0294 91° East 472 543 30,800 1,270 Climbing Los Angeles Center
Mon 01:42:38 PM 33.6364 -116.8342 90° East 484 557 32,500 1,440 Climbing Los Angeles Center
Mon 01:43:40 PM 33.6350 -116.6683 91° East 497 572 33,800 1,306 Climbing Los Angeles Center
Mon 01:44:42 PM 33.6328 -116.5042 91° East 492 566 35,200 1,452 Climbing Los Angeles Center
Mon 01:45:44 PM 33.6306 -116.3103 91° East 483 556 36,800 871 Climbing Los Angeles Center
Mon 01:46:46 PM 33.6297 -116.1469 90° East 487 560 37,000 97 Climbing Los Angeles Center
Mon 01:47:48 PM 33.6550 -115.9914 79° East 475 547 37,000  Level Los Angeles Center
Mon 01:48:50 PM 33.6800 -115.8375 79° East 471 542 37,000  Level Los Angeles Center
Mon 01:49:52 PM 33.7053 -115.6817 79° East 474 545 37,000  Level Los Angeles Center
Mon 01:50:55 PM 33.7297 -115.5239 79° East 478 550 37,000  Level Los Angeles Center
Mon 01:51:57 PM 33.7586 -115.3386 79° East 473 544 37,000  Level Los Angeles Center
Mon 01:52:59 PM 33.7833 -115.1808 79° East 479 551 37,000  Level Los Angeles Center
Mon 01:54:13 PM 33.8075 -115.0239 79° East 477 549 37,000  Level Los Angeles Center
Mon 01:55:15 PM 33.8381 -114.8378 79° East 474 545 37,000  Level Los Angeles Center
Mon 01:56:17 PM 33.8631 -114.6772 79° East 486 559 37,000  Level Los Angeles Center
Mon 01:57:20 PM 33.8872 -114.5192 80° East 483 556 37,000  Level Los Angeles Center
Mon 01:58:22 PM 33.9156 -114.3292 80° East 481 554 37,000  Level Los Angeles Center
Mon 01:59:24 PM 33.9403 -114.1692 79° East 485 558 37,000  Level Los Angeles Center
Mon 02:00:38 PM 33.9633 -114.0103 80° East 483 556 37,000  Level Los Angeles Center
Mon 02:01:40 PM 33.9831 -113.8147 83° East 489 563 37,000  Level Los Angeles Center
Mon 02:01:55 PM 33.9978 -113.7703 68° East 485 558 37,000  Level Albuquerque Center
Mon 02:02:57 PM 34.0211 -113.6097 80° East 486 559 37,000  Level Albuquerque Center
Mon 02:03:59 PM 34.0428 -113.4486 81° East 488 562 37,000  Level Albuquerque Center
Mon 02:05:01 PM 34.0650 -113.2861 81° East 489 563 37,000  Level Albuquerque Center
Mon 02:06:03 PM 34.0917 -113.0922 81° East 490 564 37,000  Level Albuquerque Center
Mon 02:07:05 PM 34.1147 -112.9292 80° East 493 567 37,000  Level Albuquerque Center
Mon 02:08:07 PM 34.1356 -112.7667 81° East 491 565 37,000  Level Albuquerque Center
Mon 02:09:09 PM 34.1575 -112.6042 81° East 491 565 37,000  Level Albuquerque Center
Mon 02:10:11 PM 34.1792 -112.4414 81° East 492 566 37,000  Level Albuquerque Center
Mon 02:11:12 PM 34.2000 -112.2761 81° East 495 570 37,000  Level Albuquerque Center
Mon 02:12:14 PM 34.2225 -112.1103 81° East 498 573 37,000  Level Albuquerque Center
Mon 02:13:16 PM 34.2436 -111.9439 81° East 496 571 37,000  Level Albuquerque Center
Mon 02:14:18 PM 34.2692 -111.7439 81° East 495 570 37,000  Level Albuquerque Center
Mon 02:15:20 PM 34.2897 -111.5778 81° East 495 570 37,000  Level Albuquerque Center
Mon 02:16:22 PM 34.3094 -111.4133 82° East 493 567 37,000  Level Albuquerque Center
Mon 02:17:24 PM 34.3294 -111.2494 82° East 492 566 37,000  Level Albuquerque Center
Mon 02:18:25 PM 34.3483 -111.0878 82° East 489 563 37,000  Level Albuquerque Center
Mon 02:19:27 PM 34.3683 -110.9264 81° East 487 560 37,000  Level Albuquerque Center
Mon 02:20:29 PM 34.3878 -110.7656 82° East 485 558 37,000  Level Albuquerque Center
Mon 02:21:31 PM 34.4075 -110.6050 81° East 483 556 37,000  Level Albuquerque Center
Mon 02:22:32 PM 34.4297 -110.4108 82° East 486 559 37,000  Level Albuquerque Center
Mon 02:23:34 PM 34.4489 -110.2378 82° East 497 572 37,000  Level Albuquerque Center
Mon 02:24:36 PM 34.4631 -110.0736 84° East 498 573 37,000  Level Albuquerque Center
Mon 02:25:38 PM 34.4844 -109.8894 82° East 497 572 37,000  Level Albuquerque Center
Mon 02:26:40 PM 34.5028 -109.7328 82° East 494 568 37,000  Level Albuquerque Center
Mon 02:27:41 PM 34.5206 -109.5739 82° East 495 570 37,000  Level Albuquerque Center
Mon 02:28:43 PM 34.5400 -109.3881 83° East 496 571 37,000  Level Albuquerque Center
Mon 02:29:45 PM 34.5569 -109.2289 83° East 497 572 37,000  Level Albuquerque Center
Mon 02:30:47 PM 34.5764 -109.0436 83° East 497 572 37,000  Level Albuquerque Center
Mon 02:31:48 PM 34.5936 -108.8800 83° East 506 582 37,000  Level Albuquerque Center
Mon 02:32:50 PM 34.6122 -108.6889 83° East 511 588 37,000  Level Albuquerque Center
Mon 02:33:52 PM 34.6281 -108.5261 83° East 510 587 37,000  Level Albuquerque Center
Mon 02:34:54 PM 34.6458 -108.3436 83° East 513 590 37,000  Level Albuquerque Center
Mon 02:35:55 PM 34.6631 -108.1711 83° East 514 592 37,000  Level Albuquerque Center
Mon 02:36:57 PM 34.6789 -107.9989 84° East 514 592 37,000  Level Albuquerque Center
Mon 02:37:59 PM 34.6947 -107.8261 84° East 515 593 37,000  Level Albuquerque Center
Mon 02:39:01 PM 34.7100 -107.6547 84° East 520 598 37,000  Level Albuquerque Center
Mon 02:40:03 PM 34.7289 -107.4464 84° East 517 595 37,000  Level Albuquerque Center
Mon 02:41:04 PM 34.7428 -107.2758 84° East 515 593 37,000  Level Albuquerque Center
Mon 02:42:06 PM 34.7569 -107.1047 84° East 513 590 37,000  Level Albuquerque Center
Mon 02:43:08 PM 34.7714 -106.9336 84° East 515 593 37,000  Level Albuquerque Center
Mon 02:44:10 PM 34.7839 -106.7628 85° East 515 593 37,000  Level Albuquerque Center
Mon 02:45:12 PM 34.7997 -106.5936 83° East 513 590 37,000  Level Albuquerque Center
Mon 02:46:13 PM 34.8164 -106.3878 84° East 513 590 37,000  Level Albuquerque Center
Mon 02:47:15 PM 34.8294 -106.2172 85° East 511 588 37,000  Level Albuquerque Center
Mon 02:48:17 PM 34.8417 -106.0469 85° East 509 586 37,000  Level Albuquerque Center
Mon 02:49:19 PM 34.8575 -105.8500 84° East 508 585 37,000  Level Albuquerque Center
Mon 02:50:21 PM 34.8706 -105.6778 85° East 507 583 37,000  Level Albuquerque Center
Mon 02:51:23 PM 34.8819 -105.5067 85° East 505 581 37,000  Level Albuquerque Center
Mon 02:52:24 PM 34.8956 -105.3350 84° East 505 581 37,000  Level Albuquerque Center
Mon 02:53:26 PM 34.9081 -105.1619 85° East 508 585 37,000  Level Albuquerque Center
Mon 02:54:28 PM 34.9192 -104.9878 86° East 510 587 37,000  Level Albuquerque Center
Mon 02:55:30 PM 34.9314 -104.8136 85° East 513 590 37,000  Level Albuquerque Center
Mon 02:56:32 PM 34.9433 -104.6386 85° East 515 593 37,000  Level Albuquerque Center
Mon 02:57:34 PM 34.9564 -104.4356 85° East 514 592 37,000  Level Albuquerque Center
Mon 02:58:35 PM 34.9672 -104.2608 86° East 518 596 37,000  Level Albuquerque Center
Mon 02:59:37 PM 34.9786 -104.0867 85° East 518 596 37,000  Level Albuquerque Center
Mon 03:00:39 PM 34.9886 -103.9125 86° East 517 595 37,000  Level Albuquerque Center
Mon 03:01:41 PM 35.0003 -103.7383 85° East 515 593 37,000  Level Albuquerque Center
Mon 03:02:43 PM 35.0100 -103.5625 86° East 517 595 37,000  Level Albuquerque Center
Mon 03:03:45 PM 35.0211 -103.3581 86° East 516 594 37,000  Level Albuquerque Center
Mon 03:04:47 PM 35.0308 -103.1819 86° East 517 595 37,000  Level Albuquerque Center
Mon 03:05:48 PM 35.0400 -103.0053 86° East 517 595 37,000  Level Albuquerque Center
Mon 03:06:50 PM 35.0481 -102.8361 87° East 515 593 37,000  Level Albuquerque Center
Mon 03:07:52 PM 35.0567 -102.6633 86° East 512 589 37,000  Level Albuquerque Center
Mon 03:08:54 PM 35.0644 -102.4903 87° East 511 588 37,000  Level Albuquerque Center
Mon 03:09:56 PM 35.0736 -102.2844 87° East 510 587 37,000  Level Albuquerque Center
Mon 03:10:58 PM 35.0817 -102.1128 87° East 510 587 37,000  Level Albuquerque Center
Mon 03:11:59 PM 35.0917 -101.9300 86° East 511 588 37,000  Level Albuquerque Center
Mon 03:13:01 PM 35.0983 -101.7547 87° East 513 590 37,000  Level Albuquerque Center
Mon 03:14:03 PM 35.1053 -101.5925 87° East 513 590 37,000  Level Albuquerque Center
Mon 03:15:05 PM 35.1125 -101.4214 87° East 507 583 37,000  Level Albuquerque Center
Mon 03:16:07 PM 35.1194 -101.2294 87° East 506 582 37,000  Level Albuquerque Center
Mon 03:17:09 PM 35.1253 -101.0594 88° East 505 581 37,000  Level Albuquerque Center
Mon 03:18:11 PM 35.1322 -100.8878 87° East 507 583 37,000 242 Level Albuquerque Center
Mon 03:19:13 PM 35.1372 -100.7125 88° East 514 592 37,500 823 Climbing Albuquerque Center
Mon 03:20:15 PM 35.1444 -100.5019 88° East 519 597 38,700 732 Climbing Albuquerque Center
Mon 03:21:16 PM 35.1489 -100.3428 88° East 520 598 39,000 146 Climbing Albuquerque Center
Mon 03:22:18 PM 35.1539 -100.1675 88° East 517 595 39,000  Level Albuquerque Center
Mon 03:23:20 PM 35.1706 -99.9961 83° East 512 589 39,000  Level Albuquerque Center
Mon 03:24:22 PM 35.2186 -99.8017 73° East 501 577 39,000  Level Albuquerque Center
Mon 03:25:24 PM 35.2567 -99.6400 74° East 497 572 39,000  Level Albuquerque Center
Mon 03:26:26 PM 35.2981 -99.4781 73° East 497 572 39,000  Level Albuquerque Center
Mon 03:27:28 PM 35.3417 -99.3108 72° East 511 588 39,000  Level Albuquerque Center
Mon 03:27:44 PM 35.3553 -99.2436 76° East 494 568 39,000  Level Fort Worth Center
Mon 03:28:44 PM 35.4014 -99.0817 71° East 501 577 39,000  Level Fort Worth Center
Mon 03:29:44 PM 35.4472 -98.9119 72° East 506 582 39,000  Level Fort Worth Center
Mon 03:30:44 PM 35.4931 -98.7444 71° East 506 582 39,000  Level Fort Worth Center
Mon 03:31:44 PM 35.5383 -98.5767 72° East 512 589 39,000  Level Fort Worth Center
Mon 03:32:44 PM 35.5919 -98.4167 68° East 512 589 39,000  Level Fort Worth Center
Mon 03:33:44 PM 35.6411 -98.2539 70° East 507 583 39,000  Level Fort Worth Center
Mon 03:34:13 PM 35.6625 -98.1886 68° East 511 588 39,000  Level Kansas City Center
Mon 03:34:44 PM 35.6942 -98.0933 68° East 507 583 39,000  Level Fort Worth Center
Mon 03:36:16 PM 35.7667 -97.8683 68° East 503 579 39,000  Level Kansas City Center
Mon 03:37:18 PM 35.8200 -97.7086 68° East 500 575 39,000  Level Kansas City Center
Mon 03:38:19 PM 35.8739 -97.5492 67° East 502 578 39,000  Level Kansas City Center
Mon 03:39:21 PM 35.9233 -97.3861 69° East 503 579 39,000  Level Kansas City Center
Mon 03:40:23 PM 35.9711 -97.1797 74° East 514 592 39,000  Level Kansas City Center
Mon 03:41:24 PM 35.9894 -97.0036 83° East 515 593 39,000  Level Kansas City Center
Mon 03:42:26 PM 35.9989 -96.8286 86° East 511 588 39,000  Level Kansas City Center
Mon 03:43:28 PM 36.0008 -96.6531 89° East 510 587 39,000  Level Kansas City Center
Mon 03:44:29 PM 35.9928 -96.4822 93° East 503 579 39,000  Level Kansas City Center
Mon 03:45:31 PM 35.9697 -96.3047 99° East 498 573 39,000  Level Kansas City Center
Mon 03:46:33 PM 35.9486 -96.1361 99° East 498 573 39,000  Level Kansas City Center
Mon 03:47:34 PM 35.9283 -95.9675 98° East 499 574 39,000  Level Kansas City Center
Mon 03:48:36 PM 35.9064 -95.7997 99° East 498 573 39,000  Level Kansas City Center
Mon 03:49:38 PM 35.8861 -95.6314 98° East 500 575 39,000  Level Kansas City Center
Mon 03:50:39 PM 35.8586 -95.4297 99° East 501 577 39,000  Level Kansas City Center
Mon 03:51:41 PM 35.8375 -95.2617 99° East 501 577 39,000  Level Kansas City Center
Mon 03:52:43 PM 35.8158 -95.0947 99° East 498 573 39,000  Level Kansas City Center
Mon 03:53:44 PM 35.7942 -94.9253 99° East 500 575 39,000  Level Kansas City Center
Mon 03:54:08 PM 35.7831 -94.8683 104° East 488 562 39,000  Level Memphis Center
Mon 03:55:08 PM 35.7578 -94.6981 100° East 488 562 39,000  Level Memphis Center
Mon 03:56:08 PM 35.7342 -94.5358 100° East 488 562 39,000  Level Memphis Center
Mon 03:57:08 PM 35.7106 -94.3683 100° East 488 562 39,000  Level Memphis Center
Mon 03:58:08 PM 35.6886 -94.2039 99° East 488 562 39,000  Level Memphis Center
Mon 03:59:08 PM 35.6650 -94.0214 99° East 488 562 39,000  Level Memphis Center
Mon 04:00:08 PM 35.6425 -93.8594 100° East 493 567 39,000  Level Memphis Center
Mon 04:01:08 PM 35.6178 -93.6975 101° East 483 556 39,000  Level Memphis Center
Mon 04:02:08 PM 35.5928 -93.5356 101° East 483 556 39,000  Level Memphis Center
Mon 04:03:09 PM 35.5750 -93.4097 100° East 478 550 39,000  Level Memphis Center
Mon 04:04:08 PM 35.5503 -93.2253 99° East 473 544 39,000  Level Memphis Center
Mon 04:05:08 PM 35.5247 -93.0561 100° East 472 543 39,000  Level Memphis Center
Mon 04:06:09 PM 35.5028 -92.9100 100° East 464 534 39,000  Level Memphis Center
Mon 04:07:08 PM 35.4769 -92.7486 101° East 464 534 39,000  Level Memphis Center
Mon 04:08:08 PM 35.4525 -92.5947 101° East 476 548 39,000  Level Memphis Center
Mon 04:09:09 PM 35.4281 -92.4414 101° East 476 548 39,000  Level Memphis Center
Mon 04:10:09 PM 35.4036 -92.2828 101° East 471 542 39,000  Level Memphis Center
Mon 04:11:08 PM 35.3786 -92.1269 101° East 471 542 39,000  Level Memphis Center
Mon 04:12:08 PM 35.3517 -91.9658 102° East 471 542 39,000  Level Memphis Center
Mon 04:13:08 PM 35.3286 -91.8103 100° East 471 542 39,000  Level Memphis Center
Mon 04:14:08 PM 35.3011 -91.6547 102° East 471 542 39,000  Level Memphis Center
Mon 04:15:08 PM 35.2756 -91.4989 101° East 471 542 39,000  Level Memphis Center
Mon 04:16:08 PM 35.2517 -91.3461 101° East 471 542 39,000  Level Memphis Center
Mon 04:17:08 PM 35.2258 -91.1933 102° East 466 536 39,000  Level Memphis Center
Mon 04:18:08 PM 35.1994 -91.0458 102° East 456 525 39,000  Level Memphis Center
Mon 04:19:08 PM 35.1753 -90.8931 101° East 451 519 39,000  Level Memphis Center
Mon 04:20:09 PM 35.1486 -90.7406 102° East 451 519 39,000  Level Memphis Center
Mon 04:21:08 PM 35.1239 -90.5881 101° East 451 519 39,000  Level Memphis Center
Mon 04:22:08 PM 35.0969 -90.4358 102° East 451 519 39,000  Level Memphis Center
Mon 04:23:08 PM 35.0700 -90.2836 102° East 451 519 39,000  Level Memphis Center
Mon 04:24:08 PM 35.0406 -90.1186 102° East 451 519 39,000  Level Memphis Center
Mon 04:25:08 PM 35.0172 -89.9692 101° East 451 519 39,000  Level Memphis Center
Mon 04:26:08 PM 35.0000 -89.8172 98° East 451 519 39,000  Level Memphis Center
Mon 04:27:08 PM 34.9761 -89.6525 100° East 469 540 39,000  Level Memphis Center
Mon 04:28:08 PM 34.9503 -89.5211 103° East 469 540 39,000  Level Memphis Center
Mon 04:29:08 PM 34.9261 -89.3744 101° East 452 520 39,000  Level Memphis Center
Mon 04:30:08 PM 34.9042 -89.2228 100° East 447 514 39,000  Level Memphis Center
Mon 04:31:08 PM 34.8797 -89.0736 101° East 452 520 39,000  Level Memphis Center
Mon 04:32:08 PM 34.8572 -88.9247 100° East 452 520 39,000  Level Memphis Center
Mon 04:33:08 PM 34.8322 -88.7631 101° East 452 520 39,000  Level Memphis Center
Mon 04:34:08 PM 34.8094 -88.6119 100° East 445 512 39,000  Level Memphis Center
Mon 04:35:08 PM 34.7842 -88.4658 102° East 452 520 39,000 -150 Level Memphis Center
Mon 04:36:08 PM 34.7608 -88.3144 101° East 447 514 38,700 -650 Descending Memphis Center
Mon 04:37:08 PM 34.7353 -88.1586 101° East 453 521 37,700 -950 Descending Memphis Center
Mon 04:38:08 PM 34.7139 -88.0075 100° East 460 529 36,800 -950 Descending Memphis Center
Mon 04:39:08 PM 34.6878 -87.8542 102° East 468 539 35,800 -1,000 Descending Memphis Center
Mon 04:40:08 PM 34.6661 -87.7058 100° East 455 524 34,800 -1,000 Descending Memphis Center
Mon 04:41:08 PM 34.6397 -87.5578 102° East 449 517 33,800 -643 Descending Memphis Center
Mon 04:42:56 PM 34.5964 -87.3014 102° East 471 542 33,000 -286 Descending Atlanta Center
Mon 04:43:56 PM 34.5669 -87.1489 103° East 465 535 33,000 -300 Level Atlanta Center
Mon 04:45:00 PM 34.5301 -86.9853 105° East  Level FlightAware Approximate
Mon 04:45:56 PM 34.5094 -86.8469 105° East 455 524 32,100  Level Atlanta Center
Mon 04:46:56 PM 34.4794 -86.6972 104° East 455 524 31,100 -1,050 Descending Atlanta Center
Mon 04:47:56 PM 34.4511 -86.5478 103° East 455 524 30,000 -1,050 Descending Atlanta Center
Mon 04:48:56 PM 34.4228 -86.4033 103° East 450 518 29,000 -950 Descending Atlanta Center
Mon 04:49:56 PM 34.3942 -86.2592 103° East 444 511 28,100 -900 Descending Atlanta Center
Mon 04:50:56 PM 34.3672 -86.1200 103° East 438 504 27,200 -900 Descending Atlanta Center
Mon 04:51:56 PM 34.3383 -85.9808 104° East 433 498 26,300 -900 Descending Atlanta Center
Mon 04:52:56 PM 34.3133 -85.8444 102° East 428 493 25,400 -1,000 Descending Atlanta Center
Mon 04:53:56 PM 34.2797 -85.7031 106° East 407 468 24,300 -1,050 Descending Atlanta Center
Mon 04:54:56 PM 34.2544 -85.5694 103° East 402 463 23,300 -1,450 Descending Atlanta Center
Mon 04:55:56 PM 34.2308 -85.4458 103° East 388 447 21,400 -1,950 Descending Atlanta Center
Mon 04:56:56 PM 34.2050 -85.3197 104° East 383 441 19,400 -2,000 Descending Atlanta Center
Mon 04:57:56 PM 34.1772 -85.1914 105° East 378 435 17,400 -2,100 Descending Atlanta Center
Mon 04:58:56 PM 34.1342 -85.0828 116° Southeast 372 428 15,200 -1,700 Descending Atlanta Center
Mon 04:59:56 PM 34.0639 -84.9917 133° Southeast 365 420 14,000 -700 Descending Atlanta Center
Mon 05:00:56 PM 33.9978 -84.9083 134° Southeast 353 406 13,800 -800 Descending Atlanta Center
Mon 05:01:56 PM 33.9317 -84.8225 133° Southeast 348 400 12,400 -900 Descending Atlanta Center
Mon 05:02:56 PM 33.8675 -84.7442 135° Southeast 337 388 12,000 -293 Descending Atlanta Center
Mon 05:03:18 PM 33.8500 -84.7167 127° Southeast 295 339 12,000  Level Atlanta TRACON
Mon 05:04:18 PM 33.8000 -84.6500 132° Southeast 261 300 12,000  Level Atlanta TRACON
Mon 05:05:18 PM 33.7500 -84.5833 132° Southeast 261 300 12,000 -400 Level Atlanta TRACON
Mon 05:06:18 PM 33.7333 -84.5000 104° East 262 302 11,200 -1,000 Descending Atlanta TRACON
Mon 05:07:18 PM 33.7333 -84.4167 90° East 264 304 10,000 -1,400 Descending Atlanta TRACON
Mon 05:08:18 PM 33.7333 -84.3333 90° East 253 291 8,400 -1,550 Descending Atlanta TRACON
Mon 05:09:18 PM 33.7333 -84.2500 90° East 245 282 6,900 -1,400 Descending Atlanta TRACON
Mon 05:10:18 PM 33.7333 -84.1667 90° East 239 275 5,600 -950 Descending Atlanta TRACON
Mon 05:11:18 PM 33.7333 -84.1000 90° East 234 269 5,000 -300 Descending Atlanta TRACON
Mon 05:12:18 PM 33.7000 -84.0500 129° Southeast 224 258 5,000  Level Atlanta TRACON
Mon 05:13:18 PM 33.6500 -84.0833 209° Southwest 205 236 5,000  Level Atlanta TRACON
Mon 05:14:18 PM 33.6500 -84.1500 270° West 189 217 5,000 -450 Level Atlanta TRACON
Mon 05:15:18 PM 33.6500 -84.2167 270° West 194 223 4,100 -1,000 Descending Atlanta TRACON
Mon 05:16:12 PM 33.6500 -84.2833 270° West 196 226 3,100 -1,053 Descending Atlanta TRACON
Mon 05:17:12 PM 33.6500 -84.3333 270° West 177 204 2,100 -900 Descending Atlanta TRACON
Mon 05:18:12 PM 33.6500 -84.3833 270° West 141 162 1,300 -800 Descending Atlanta TRACON
Mon 05:20:00 PM 33.6333 -84.4167 North  Level FlightAware Approximate
Mon 05:27:00 PM 33.6367 -84.4279 North  Level Estimated

Login

Don't have an account? Register now (free) for customized features, flight alerts, and more!